| time (UTC) | temp F | wind direction | speed MPH | gust MPH | rain 1hr in | rain 24hr in | rain mn in | humidity % | barometer mb |
| 20260901071548 | 62 | 0 | 0.0 | 0.0 | 0.00 | 0.00 | 0.00 | 91 | 1013.7 |
| 20260901070051 | 63 | 0 | 0.0 | 0.0 | 0.00 | 0.00 | 0.00 | 90 | 1013.8 |
| 20260901064555 | 63 | 0 | 0.0 | 0.0 | 0.00 | 0.00 | 0.00 | 90 | 1013.8 |
| 20260901063104 | 63 | 0 | 0.0 | 0.0 | 0.00 | 0.00 | 0.00 | 89 | 1013.9 |
| 20260901061627 | 64 | 0 | 0.0 | 0.0 | 0.00 | 0.00 | 0.00 | 89 | 1013.9 |
| 20260901060056 | 64 | 0 | 0.0 | 0.0 | 0.00 | 0.00 | 0.00 | 89 | 1013.7 |
| 20260901054547 | 65 | 0 | 0.0 | 0.0 | 0.00 | 0.00 | 0.00 | 89 | 1013.7 |
| 20260901053106 | 65 | 0 | 0.0 | 0.0 | 0.00 | 0.00 | 0.00 | 88 | 1013.8 |
| 20260901051548 | 66 | 0 | 0.0 | 0.0 | 0.00 | 0.00 | 0.00 | 88 | 1013.7 |
| 20260901050048 | 66 | 0 | 0.0 | 0.0 | 0.00 | 0.00 | 0.00 | 87 | 1013.5 |
| 20260901044601 | 67 | 0 | 0.0 | 0.0 | 0.00 | 0.00 | 0.00 | 87 | 1013.5 |
| 20260901043049 | 67 | 0 | 0.0 | 0.0 | 0.00 | 0.00 | 0.00 | 85 | 1013.4 |
| 20260901041546 | 67 | 0 | 0.0 | 0.0 | 0.00 | 0.00 | 0.00 | 83 | 1013.1 |
| 20260901040049 | 68 | 0 | 0.0 | 0.0 | 0.00 | 0.00 | 0.00 | 82 | 1013.2 |
| 20260901034553 | 69 | 0 | 0.0 | 0.0 | 0.00 | 0.00 | 0.00 | 81 | 1013.3 |
| 20260901033049 | 69 | 0 | 0.0 | 0.0 | 0.00 | 0.00 | 0.00 | 80 | 1013.3 |
| 20260901031557 | 70 | 0 | 0.0 | 0.0 | 0.00 | 0.00 | 0.00 | 79 | 1013.1 |
| 20260901030048 | 71 | 0 | 0.0 | 0.0 | 0.00 | 0.00 | 0.00 | 76 | 1013.0 |
| 20260901024555 | 71 | 0 | 0.0 | 0.0 | 0.00 | 0.00 | 0.00 | 75 | 1012.9 |
| 20260901023048 | 72 | 0 | 0.0 | 0.0 | 0.00 | 0.00 | 0.00 | 73 | 1012.9 |
| 20260901021549 | 73 | 0 | 0.0 | 0.0 | 0.00 | 0.00 | 0.00 | 71 | 1012.8 |
| 20260901020112 | 75 | 0 | 0.0 | 0.0 | 0.00 | 0.00 | 0.00 | 68 | 1012.7 |
| 20260901014553 | 76 | 0 | 0.0 | 0.0 | 0.00 | 0.00 | 0.00 | 65 | 1012.5 |
| 20260901011600 | 79 | 0 | 0.0 | 0.0 | 0.00 | 0.00 | 0.00 | 60 | 1012.2 |
| 20260901010054 | 80 | 0 | 0.0 | 0.0 | 0.00 | 0.00 | 0.00 | 58 | 1012.0 |
| 20260901004600 | 82 | 0 | 0.0 | 0.0 | 0.00 | 0.00 | 0.00 | 56 | 1012.1 |
| 20260901003046 | 84 | 0 | 0.0 | 0.0 | 0.00 | 0.00 | 0.00 | 53 | 1012.0 |
| 20260901001549 | 85 | 0 | 0.0 | 1.0 | 0.00 | 0.00 | 0.00 | 50 | 1012.0 |
| 20260901000104 | 85 | 0 | 0.0 | 2.0 | 0.00 | 0.00 | 0.00 | 49 | 1012.0 |
| 20260831234557 | 86 | 0 | 0.0 | 1.0 | 0.00 | 0.00 | 0.00 | 47 | 1011.9 |
| 20260831233049 | 86 | 0 | 0.0 | 2.0 | 0.00 | 0.00 | 0.00 | 50 | 1011.9 |
| 20260831231550 | 87 | 9 | 1.0 | 3.0 | 0.00 | 0.00 | 0.00 | 46 | 1011.9 |
| 20260831230054 | 87 | 0 | 0.0 | 2.0 | 0.00 | 0.00 | 0.00 | 45 | 1011.8 |
| 20260831224552 | 88 | 0 | 0.0 | 1.0 | 0.00 | 0.00 | 0.00 | 43 | 1011.6 |
| 20260831223055 | 88 | 221 | 1.0 | 5.0 | 0.00 | 0.00 | 0.00 | 44 | 1011.6 |
| 20260831221546 | 88 | 236 | 1.0 | 7.0 | 0.00 | 0.00 | 0.00 | 44 | 1011.5 |
| 20260831220053 | 89 | 211 | 1.0 | 5.0 | 0.00 | 0.00 | 0.00 | 44 | 1011.5 |
| 20260831214552 | 88 | 200 | 3.0 | 10.0 | 0.00 | 0.00 | 0.00 | 42 | 1011.4 |
| 20260831213050 | 89 | 181 | 2.0 | 7.0 | 0.00 | 0.00 | 0.00 | 41 | 1011.4 |
| 20260831211545 | 89 | 192 | 1.0 | 5.0 | 0.00 | 0.00 | 0.00 | 40 | 1011.3 |
| 20260831210051 | 90 | 223 | 2.0 | 7.0 | 0.00 | 0.00 | 0.00 | 41 | 1011.2 |
| 20260831204547 | 90 | 190 | 1.0 | 6.0 | 0.00 | 0.00 | 0.00 | 42 | 1011.4 |
| 20260831203046 | 90 | 226 | 2.0 | 6.0 | 0.00 | 0.00 | 0.00 | 41 | 1011.5 |
| 20260831201554 | 90 | 205 | 1.0 | 6.0 | 0.00 | 0.00 | 0.00 | 40 | 1011.5 |
| 20260831200050 | 89 | 151 | 0.0 | 5.0 | 0.00 | 0.00 | 0.00 | 43 | 1011.2 |
| 20260831194616 | 89 | 352 | 2.0 | 9.0 | 0.00 | 0.00 | 0.00 | 44 | 1011.1 |
| 20260831193043 | 88 | 340 | 2.0 | 4.0 | 0.00 | 0.00 | 0.00 | 44 | 1011.0 |
| 20260831191553 | 88 | 337 | 1.0 | 8.0 | 0.00 | 0.00 | 0.00 | 44 | 1011.3 |
| 20260831190108 | 86 | 148 | 0.0 | 7.0 | 0.00 | 0.00 | 0.00 | 52 | 1011.3 |
| 20260831184547 | 86 | 184 | 3.0 | 6.0 | 0.00 | 0.00 | 0.00 | 53 | 1011.1 |
| 20260831183100 | 86 | 183 | 3.0 | 7.0 | 0.00 | 0.00 | 0.00 | 53 | 1011.1 |
| 20260831181547 | 85 | 173 | 1.0 | 10.0 | 0.00 | 0.00 | 0.00 | 57 | 1011.2 |
| 20260831180059 | 84 | 206 | 2.0 | 6.0 | 0.00 | 0.00 | 0.00 | 61 | 1011.2 |
| 20260831174552 | 83 | 103 | 2.0 | 7.0 | 0.00 | 0.00 | 0.00 | 63 | 1011.3 |
| 20260831173046 | 82 | 186 | 2.0 | 7.0 | 0.00 | 0.00 | 0.00 | 67 | 1011.6 |
| 20260831171546 | 81 | 195 | 2.0 | 6.0 | 0.00 | 0.00 | 0.00 | 69 | 1011.6 |
| 20260831170051 | 80 | 148 | 1.0 | 9.0 | 0.00 | 0.00 | 0.00 | 72 | 1011.6 |
| 20260831164555 | 79 | 194 | 2.0 | 5.0 | 0.00 | 0.00 | 0.00 | 74 | 1011.6 |
| 20260831163049 | 78 | 207 | 2.0 | 8.0 | 0.00 | 0.00 | 0.00 | 77 | 1011.6 |
| 20260831161547 | 78 | 233 | 2.0 | 7.0 | 0.00 | 0.00 | 0.00 | 78 | 1011.6 |
| 20260831160049 | 77 | 163 | 2.0 | 6.0 | 0.00 | 0.00 | 0.00 | 82 | 1011.5 |
| 20260831154703 | 76 | 211 | 3.0 | 9.0 | 0.00 | 0.00 | 0.00 | 83 | 1011.3 |
| 20260831153049 | 76 | 231 | 2.0 | 6.0 | 0.00 | 0.00 | 0.00 | 84 | 1011.2 |
| 20260831151551 | 76 | 194 | 2.0 | 7.0 | 0.00 | 0.00 | 0.00 | 84 | 1011.2 |
| 20260831150052 | 76 | 346 | 2.0 | 7.0 | 0.00 | 0.00 | 0.00 | 85 | 1010.7 |
| 20260831144548 | 76 | 181 | 2.0 | 10.0 | 0.00 | 0.00 | 0.00 | 86 | 1010.4 |
| 20260831143110 | 76 | 211 | 3.0 | 9.0 | 0.00 | 0.00 | 0.00 | 86 | 1010.2 |
| 20260831141605 | 76 | 271 | 3.0 | 9.0 | 0.00 | 0.00 | 0.00 | 88 | 1010.1 |
| 20260831140052 | 74 | 222 | 1.0 | 7.0 | 0.00 | 0.00 | 0.00 | 91 | 1009.7 |
| 20260831134552 | 73 | 175 | 1.0 | 4.0 | 0.00 | 0.00 | 0.00 | 92 | 1009.8 |
| 20260831133244 | 72 | 150 | 0.0 | 3.0 | 0.00 | 0.00 | 0.00 | 95 | 1009.5 |
| 20260831131543 | 71 | 0 | 0.0 | 3.0 | 0.00 | 0.00 | 0.00 | 95 | 1009.3 |
| 20260831130056 | 70 | 0 | 0.0 | 1.0 | 0.00 | 0.00 | 0.00 | 95 | 1009.3 |
| 20260831124551 | 69 | 0 | 0.0 | 0.0 | 0.00 | 0.00 | 0.00 | 95 | 1009.1 |
| 20260831123047 | 68 | 0 | 0.0 | 0.0 | 0.00 | 0.00 | 0.00 | 94 | 1009.0 |
| 20260831121553 | 68 | 0 | 0.0 | 0.0 | 0.00 | 0.00 | 0.00 | 93 | 1008.7 |
| 20260831120054 | 68 | 0 | 0.0 | 0.0 | 0.00 | 0.00 | 0.00 | 93 | 1008.3 |
| 20260831114549 | 68 | 0 | 0.0 | 0.0 | 0.00 | 0.00 | 0.00 | 93 | 1008.1 |
| 20260831113048 | 68 | 0 | 0.0 | 0.0 | 0.00 | 0.00 | 0.00 | 93 | 1008.2 |
| 20260831111552 | 68 | 0 | 0.0 | 0.0 | 0.00 | 0.00 | 0.00 | 93 | 1008.1 |
| 20260831110048 | 69 | 0 | 0.0 | 0.0 | 0.00 | 0.00 | 0.00 | 92 | 1008.0 |
| 20260831104547 | 69 | 0 | 0.0 | 0.0 | 0.00 | 0.00 | 0.00 | 92 | 1008.0 |
| 20260831103048 | 69 | 0 | 0.0 | 0.0 | 0.00 | 0.00 | 0.00 | 92 | 1008.0 |
| 20260831101613 | 70 | 0 | 0.0 | 0.0 | 0.00 | 0.00 | 0.00 | 92 | 1007.8 |
| 20260831100058 | 70 | 0 | 0.0 | 0.0 | 0.00 | 0.00 | 0.00 | 92 | 1007.7 |
| 20260831094546 | 70 | 0 | 0.0 | 0.0 | 0.00 | 0.00 | 0.00 | 91 | 1007.7 |
| 20260831093045 | 70 | 0 | 0.0 | 0.0 | 0.00 | 0.00 | 0.00 | 91 | 1007.6 |
| 20260831091551 | 71 | 0 | 0.0 | 0.0 | 0.00 | 0.00 | 0.00 | 91 | 1007.4 |
| 20260831090105 | 71 | 0 | 0.0 | 0.0 | 0.00 | 0.00 | 0.00 | 90 | 1007.8 |
| 20260831084547 | 71 | 0 | 0.0 | 0.0 | 0.00 | 0.00 | 0.00 | 90 | 1007.6 |
| 20260831083054 | 72 | 0 | 0.0 | 0.0 | 0.00 | 0.00 | 0.00 | 89 | 1007.3 |
| 20260831081553 | 72 | 0 | 0.0 | 0.0 | 0.00 | 0.00 | 0.00 | 89 | 1007.3 |
| 20260831080051 | 72 | 0 | 0.0 | 0.0 | 0.00 | 0.00 | 0.00 | 88 | 1007.3 |
| 20260831074547 | 73 | 0 | 0.0 | 0.0 | 0.00 | 0.00 | 0.00 | 88 | 1007.3 |
| 20260831073050 | 73 | 0 | 0.0 | 1.0 | 0.00 | 0.00 | 0.00 | 88 | 1007.3 |